createdAt,value
2022-10-07T00:00:57.862Z,7.75
2022-10-07T00:03:26.025Z,8.57
2022-10-07T00:06:10.862Z,11.27
2022-10-07T00:08:38.731Z,5.43
2022-10-07T00:11:18.066Z,8.20
2022-10-07T00:13:47.137Z,7.47
2022-10-07T00:16:17.455Z,4.70
2022-10-07T00:18:44.642Z,8.63
2022-10-07T00:21:14.219Z,7.20
2022-10-07T00:23:44.658Z,9.60
2022-10-07T00:26:13.823Z,9.52
2022-10-07T00:28:40.422Z,6.18
2022-10-07T00:31:10.079Z,7.88
2022-10-07T00:33:39.827Z,7.70
2022-10-07T00:36:23.761Z,8.20
2022-10-07T00:38:56.715Z,9.10
2022-10-07T00:41:30.241Z,6.63
2022-10-07T00:43:56.640Z,12.75
2022-10-07T00:46:40.076Z,7.32
2022-10-07T00:49:11.668Z,10.85
2022-10-07T00:51:39.078Z,8.85
2022-10-07T00:54:12.433Z,9.52
2022-10-07T00:56:41.125Z,7.85
2022-10-07T00:59:08.062Z,8.10
2022-10-07T01:01:35.004Z,12.02
2022-10-07T01:04:02.368Z,5.97
2022-10-07T01:06:28.766Z,7.18
2022-10-07T01:08:55.488Z,8.82
2022-10-07T01:11:28.967Z,11.52
2022-10-07T01:14:09.053Z,9.07
2022-10-07T01:17:20.799Z,5.30
2022-10-07T01:20:08.030Z,15.80
2022-10-07T01:22:47.630Z,8.68
2022-10-07T01:25:38.995Z,9.70
2022-10-07T01:28:10.905Z,10.48
2022-10-07T01:30:41.967Z,10.40
2022-10-07T01:33:18.934Z,10.30
2022-10-07T01:35:50.649Z,6.72
2022-10-07T01:38:22.238Z,7.45
2022-10-07T01:41:01.155Z,9.18
2022-10-07T01:43:27.610Z,9.65
2022-10-07T01:45:56.362Z,11.75
2022-10-07T01:48:22.811Z,6.78
2022-10-07T01:50:51.493Z,7.70
2022-10-07T01:53:50.081Z,8.98
2022-10-07T01:57:00.579Z,7.25
2022-10-07T01:59:53.304Z,7.10
2022-10-07T02:02:54.454Z,6.60
2022-10-07T02:05:35.586Z,5.57
2022-10-07T02:08:22.018Z,7.30
2022-10-07T02:10:54.244Z,12.23
2022-10-07T02:13:38.068Z,8.48
2022-10-07T02:16:14.779Z,4.63
2022-10-07T02:18:48.282Z,6.40
2022-10-07T02:21:16.423Z,8.73
2022-10-07T02:23:46.384Z,6.82
2022-10-07T02:26:17.264Z,8.00
2022-10-07T02:31:17.783Z,6.93
2022-10-07T02:33:47.126Z,7.22
2022-10-07T02:36:22.350Z,7.68
2022-10-07T02:38:49.284Z,5.03
2022-10-07T02:41:35.541Z,9.02
2022-10-07T02:44:29.874Z,9.80
2022-10-07T02:47:18.824Z,4.88
2022-10-07T02:49:50.214Z,12.70
2022-10-07T02:52:19.850Z,6.45
2022-10-07T02:57:19.901Z,5.25
2022-10-07T02:59:50.287Z,8.50
2022-10-07T03:02:27.955Z,5.57
2022-10-07T03:04:57.489Z,13.25
2022-10-07T03:07:25.026Z,7.13
2022-10-07T03:09:52.501Z,5.97
2022-10-07T03:12:19.703Z,9.27
2022-10-07T03:14:49.799Z,4.68
2022-10-07T03:17:17.930Z,9.23
2022-10-07T03:19:44.458Z,6.68
2022-10-07T03:22:11.077Z,10.70
2022-10-07T03:24:40.449Z,9.32
2022-10-07T03:27:09.032Z,12.35
2022-10-07T03:29:37.975Z,10.63
2022-10-07T03:32:05.406Z,9.40
2022-10-07T03:34:33.729Z,7.47
2022-10-07T03:37:00.751Z,9.38
2022-10-07T03:39:28.072Z,8.80
2022-10-07T03:41:54.583Z,8.18
2022-10-07T03:44:22.350Z,8.77
2022-10-07T03:46:51.226Z,4.13
2022-10-07T03:49:20.219Z,6.97
2022-10-07T03:51:47.590Z,9.32
2022-10-07T03:54:14.111Z,5.53
2022-10-07T03:56:40.521Z,6.68
2022-10-07T03:59:06.915Z,11.45
2022-10-07T04:01:35.933Z,11.55
2022-10-07T04:04:02.443Z,8.65
2022-10-07T04:06:34.207Z,7.93
2022-10-07T04:11:31.601Z,8.40
2022-10-07T04:14:00.658Z,6.88
2022-10-07T04:16:27.959Z,6.90
2022-10-07T04:18:56.468Z,11.95
2022-10-07T04:21:24.343Z,10.90
2022-10-07T04:23:50.971Z,11.00
2022-10-07T04:26:17.542Z,7.32
2022-10-07T04:28:49.229Z,12.15
2022-10-07T04:31:18.976Z,11.35
2022-10-07T04:33:48.930Z,6.97
2022-10-07T04:36:21.200Z,11.13
2022-10-07T04:38:56.427Z,10.90
2022-10-07T04:41:27.031Z,5.50
2022-10-07T04:43:57.635Z,11.95
2022-10-07T04:46:25.750Z,12.05
2022-10-07T04:48:59.604Z,15.13
2022-10-07T04:51:27.559Z,13.90
2022-10-07T04:53:57.532Z,10.05
2022-10-07T04:56:36.752Z,22.63
2022-10-07T04:59:06.144Z,13.02
2022-10-07T05:01:33.222Z,11.55
2022-10-07T05:03:59.695Z,9.52
2022-10-07T05:06:27.112Z,15.80
2022-10-07T05:08:54.212Z,9.95
2022-10-07T05:11:21.595Z,14.32
2022-10-07T05:13:53.765Z,16.90
2022-10-07T05:16:21.250Z,12.60
2022-10-07T05:18:47.792Z,10.35
2022-10-07T05:21:15.662Z,14.20
2022-10-07T05:23:45.067Z,12.05
2022-10-07T05:26:16.031Z,10.20
2022-10-07T05:28:48.591Z,10.23
2022-10-07T05:31:18.499Z,15.40
2022-10-07T05:33:52.205Z,12.35
2022-10-07T05:36:21.438Z,11.20
2022-10-07T05:38:48.784Z,9.90
2022-10-07T05:41:15.380Z,15.50
2022-10-07T05:43:43.042Z,9.10
2022-10-07T05:46:15.315Z,23.92
2022-10-07T05:48:48.035Z,14.65
2022-10-07T05:51:15.071Z,13.73
2022-10-07T05:53:42.891Z,10.63
2022-10-07T05:56:12.557Z,8.63
2022-10-07T05:58:39.064Z,13.43
2022-10-07T06:01:14.197Z,15.30
2022-10-07T06:03:42.655Z,16.70
2022-10-07T06:06:10.282Z,20.00
2022-10-07T06:08:36.907Z,11.60
2022-10-07T06:11:25.501Z,9.70
2022-10-07T06:13:54.556Z,10.00
2022-10-07T06:16:21.462Z,15.68
2022-10-07T06:18:50.502Z,9.80
2022-10-07T06:21:19.114Z,14.57
2022-10-07T06:23:51.389Z,15.13
2022-10-07T06:26:20.818Z,10.40
2022-10-07T06:28:47.882Z,10.00
2022-10-07T06:31:22.391Z,13.27
2022-10-07T06:33:50.334Z,13.43
2022-10-07T06:36:17.335Z,12.30
2022-10-07T06:38:47.644Z,15.95
2022-10-07T06:41:16.043Z,12.00
2022-10-07T06:43:43.913Z,8.10
2022-10-07T06:46:19.411Z,14.13
2022-10-07T06:48:48.967Z,14.93
2022-10-07T06:51:19.868Z,13.20
2022-10-07T06:53:52.191Z,13.05
2022-10-07T06:56:19.554Z,10.82
2022-10-07T06:58:46.897Z,16.42
2022-10-07T07:01:15.425Z,13.55
2022-10-07T07:03:42.416Z,12.70
2022-10-07T07:06:11.152Z,11.30
2022-10-07T07:08:38.684Z,11.20
2022-10-07T07:11:31.110Z,9.20
2022-10-07T07:14:03.601Z,13.82
2022-10-07T07:16:30.621Z,17.10
2022-10-07T07:18:59.829Z,18.17
2022-10-07T07:21:28.765Z,9.40
2022-10-07T07:23:55.365Z,14.73
2022-10-07T07:26:22.050Z,16.27
2022-10-07T07:28:53.472Z,17.48
2022-10-07T07:31:21.003Z,13.80
2022-10-07T07:33:52.419Z,10.05
2022-10-07T07:36:23.157Z,7.53
2022-10-07T07:39:01.125Z,8.40
2022-10-07T07:41:30.911Z,12.38
2022-10-07T07:44:00.580Z,15.90
2022-10-07T07:46:32.494Z,8.48
2022-10-07T07:48:58.939Z,9.18
2022-10-07T07:51:26.043Z,10.38
2022-10-07T07:53:53.031Z,14.52
2022-10-07T07:56:20.160Z,13.57
2022-10-07T07:58:47.424Z,10.82
2022-10-07T08:01:18.578Z,14.32
2022-10-07T08:06:16.498Z,12.05
2022-10-07T08:08:45.892Z,10.07
2022-10-07T08:11:16.667Z,18.63
2022-10-07T08:13:44.410Z,13.20
2022-10-07T08:16:24.865Z,13.88
2022-10-07T08:18:55.031Z,7.85
2022-10-07T08:21:26.083Z,10.07
2022-10-07T08:23:58.559Z,9.68
2022-10-07T08:26:30.910Z,16.75
2022-10-07T08:29:00.470Z,7.10
2022-10-07T08:31:29.194Z,11.98
2022-10-07T08:33:58.606Z,7.93
2022-10-07T08:36:27.247Z,15.95
2022-10-07T08:38:53.776Z,8.43
2022-10-07T08:41:51.233Z,10.35
2022-10-07T08:44:38.611Z,17.63
2022-10-07T08:47:16.197Z,11.60
2022-10-07T08:50:07.789Z,12.50
2022-10-07T08:52:55.564Z,12.77
2022-10-07T08:55:34.895Z,12.13
2022-10-07T08:58:18.463Z,8.18
2022-10-07T09:00:57.573Z,8.85
2022-10-07T09:03:32.644Z,10.68
2022-10-07T09:06:01.301Z,13.15
2022-10-07T09:08:37.329Z,8.77
2022-10-07T09:11:15.740Z,13.48
2022-10-07T09:14:21.008Z,6.97
2022-10-07T09:16:47.994Z,10.57
2022-10-07T09:19:28.596Z,7.60
2022-10-07T09:22:00.137Z,8.00
2022-10-07T09:24:28.995Z,9.80
2022-10-07T09:26:59.111Z,13.73
2022-10-07T09:29:27.815Z,12.73
2022-10-07T09:31:54.283Z,9.70
2022-10-07T09:34:25.056Z,10.13
2022-10-07T09:37:21.452Z,8.40
2022-10-07T09:39:51.057Z,7.68
2022-10-07T09:42:28.462Z,12.73
2022-10-07T09:44:57.399Z,15.55
2022-10-07T09:47:44.405Z,7.95
2022-10-07T09:50:36.970Z,8.27
2022-10-07T09:53:05.426Z,10.15
2022-10-07T09:55:40.918Z,12.85
2022-10-07T09:58:21.499Z,13.63
2022-10-07T10:00:49.983Z,7.88
2022-10-07T10:03:17.880Z,7.00
2022-10-07T10:05:54.914Z,9.82
2022-10-07T10:08:25.124Z,10.25
2022-10-07T10:10:55.994Z,10.50
2022-10-07T10:15:53.057Z,10.80
2022-10-07T10:18:30.696Z,9.85
2022-10-07T10:21:15.819Z,9.40
2022-10-07T10:23:47.582Z,6.95
2022-10-07T10:26:33.621Z,9.68
2022-10-07T10:29:32.903Z,6.13
2022-10-07T10:32:02.073Z,8.75
2022-10-07T10:34:46.598Z,11.05
2022-10-07T10:37:21.462Z,5.32
2022-10-07T10:40:12.286Z,17.10
2022-10-07T10:42:51.472Z,11.40
2022-10-07T10:45:50.275Z,6.03
2022-10-07T10:48:30.982Z,8.52
2022-10-07T10:51:32.141Z,7.63
2022-10-07T10:54:38.667Z,9.02
2022-10-07T10:57:21.422Z,8.50
2022-10-07T11:00:07.794Z,11.38
2022-10-07T11:02:37.303Z,12.50
2022-10-07T11:05:24.552Z,7.45
2022-10-07T11:07:55.936Z,5.53
2022-10-07T11:10:35.355Z,5.82
2022-10-07T11:13:23.283Z,8.93
2022-10-07T11:16:14.796Z,5.95
2022-10-07T11:19:17.121Z,8.05
2022-10-07T11:21:47.284Z,7.95
2022-10-07T11:24:17.907Z,5.00
2022-10-07T11:26:50.914Z,12.85
2022-10-07T11:29:20.278Z,4.15
2022-10-07T11:31:58.092Z,9.73
2022-10-07T11:34:42.640Z,9.57
2022-10-07T11:37:23.047Z,6.22
2022-10-07T11:39:51.086Z,4.35
2022-10-07T11:42:22.746Z,9.85
2022-10-07T11:44:52.149Z,10.52
2022-10-07T11:47:24.002Z,8.25
2022-10-07T11:50:07.848Z,8.02
2022-10-07T11:52:39.195Z,7.97
2022-10-07T11:55:29.242Z,5.05
2022-10-07T11:57:58.628Z,9.43
2022-10-07T12:00:34.278Z,4.07
2022-10-07T12:03:33.663Z,7.75
2022-10-07T12:06:10.201Z,4.88
2022-10-07T12:08:38.763Z,9.93
2022-10-07T12:11:37.309Z,10.85
2022-10-07T12:14:34.004Z,5.50
2022-10-07T12:17:17.868Z,7.75
2022-10-07T12:19:45.121Z,7.18
2022-10-07T12:22:11.431Z,7.63
2022-10-07T12:24:38.351Z,6.13
2022-10-07T12:27:14.443Z,7.60
2022-10-07T12:29:50.815Z,4.85
2022-10-07T12:32:47.187Z,7.25
2022-10-07T12:35:34.889Z,5.10
2022-10-07T12:38:10.315Z,4.78
2022-10-07T12:40:38.303Z,7.95
2022-10-07T12:43:23.588Z,9.50
2022-10-07T12:45:50.282Z,8.35
2022-10-07T12:48:20.818Z,8.07
2022-10-07T12:50:50.207Z,5.57
2022-10-07T12:53:18.867Z,5.82
2022-10-07T12:55:49.930Z,7.57
2022-10-07T12:59:00.599Z,7.38
2022-10-07T13:01:47.237Z,7.05
2022-10-07T13:04:51.571Z,5.05
2022-10-07T13:08:06.729Z,7.93
2022-10-07T13:10:51.096Z,7.05
2022-10-07T13:13:30.682Z,4.15
2022-10-07T13:16:03.777Z,3.58
2022-10-07T13:19:06.343Z,7.00
2022-10-07T13:21:46.381Z,8.30
2022-10-07T13:24:16.672Z,3.93
2022-10-07T13:26:45.937Z,5.63
2022-10-07T13:29:33.269Z,7.95
2022-10-07T13:32:11.605Z,5.00
2022-10-07T13:34:38.372Z,6.15
2022-10-07T13:37:35.267Z,6.85
2022-10-07T13:40:21.981Z,7.30
2022-10-07T13:42:56.638Z,8.23
2022-10-07T13:45:23.363Z,4.10
2022-10-07T13:47:50.403Z,8.18
2022-10-07T13:50:21.174Z,6.78
2022-10-07T13:55:35.456Z,7.93
2022-10-07T13:58:04.401Z,5.50
2022-10-07T14:00:40.307Z,8.40
2022-10-07T14:03:17.009Z,5.45
2022-10-07T14:05:51.883Z,2.72
2022-10-07T14:08:21.513Z,2.92
2022-10-07T14:10:57.004Z,6.18
2022-10-07T14:13:24.006Z,5.65
2022-10-07T14:15:54.101Z,5.57
2022-10-07T14:18:20.738Z,4.90
2022-10-07T14:20:52.297Z,6.63
2022-10-07T14:23:31.264Z,4.20
2022-10-07T14:26:04.113Z,4.32
2022-10-07T14:28:33.592Z,4.50
2022-10-07T14:31:25.877Z,5.37
2022-10-07T14:34:31.703Z,3.47
2022-10-07T14:37:08.407Z,9.05
2022-10-07T14:39:40.539Z,5.03
2022-10-07T14:42:28.623Z,3.78
2022-10-07T14:44:57.034Z,4.80
2022-10-07T14:47:27.879Z,5.20
2022-10-07T14:52:43.722Z,7.93
2022-10-07T14:55:16.937Z,5.82
2022-10-07T14:57:44.131Z,7.03
2022-10-07T15:00:16.038Z,5.80
2022-10-07T15:02:42.482Z,7.18
2022-10-07T15:05:09.533Z,3.40
2022-10-07T15:07:36.181Z,7.10
2022-10-07T15:10:02.835Z,4.80
2022-10-07T15:12:30.798Z,3.30
2022-10-07T15:14:57.219Z,4.70
2022-10-07T15:17:23.712Z,2.78
2022-10-07T15:19:52.340Z,3.80
2022-10-07T15:22:18.902Z,4.20
2022-10-07T15:24:45.808Z,5.97
2022-10-07T15:27:12.486Z,2.72
2022-10-07T15:29:39.381Z,4.18
2022-10-07T15:32:08.280Z,3.65
2022-10-07T15:34:34.929Z,3.15
2022-10-07T15:37:01.546Z,5.57
2022-10-07T15:39:28.043Z,5.28
2022-10-07T15:41:55.311Z,8.30
2022-10-07T15:44:22.346Z,7.22
2022-10-07T15:46:52.780Z,6.43
2022-10-07T15:49:19.914Z,5.15
2022-10-07T15:51:47.017Z,6.88
2022-10-07T15:54:13.809Z,6.22
2022-10-07T15:56:40.824Z,10.02
2022-10-07T15:59:07.874Z,5.13
2022-10-07T16:01:34.668Z,8.85
2022-10-07T16:04:03.202Z,7.50
2022-10-07T16:06:32.825Z,10.73
2022-10-07T16:09:00.133Z,3.80
2022-10-07T16:11:28.428Z,4.40
2022-10-07T16:13:55.297Z,4.65
2022-10-07T16:16:24.430Z,4.68
2022-10-07T16:18:52.759Z,7.07
2022-10-07T16:21:22.845Z,7.00
2022-10-07T16:23:51.384Z,8.70
2022-10-07T16:26:21.180Z,7.40
2022-10-07T16:29:08.231Z,5.88
2022-10-07T16:31:37.423Z,7.55
2022-10-07T16:34:04.455Z,6.80
2022-10-07T16:36:30.936Z,6.07
2022-10-07T16:38:59.709Z,4.15
2022-10-07T16:41:26.423Z,8.65
2022-10-07T16:43:52.831Z,4.63
2022-10-07T16:46:20.748Z,7.32
2022-10-07T16:48:48.695Z,5.68
2022-10-07T16:51:17.978Z,7.93
2022-10-07T16:53:46.531Z,7.45
2022-10-07T16:56:13.757Z,6.53
2022-10-07T16:58:40.328Z,4.63
2022-10-07T17:01:09.708Z,7.20
2022-10-07T17:03:37.655Z,2.28
2022-10-07T17:06:04.385Z,4.22
2022-10-07T17:08:36.394Z,2.95
2022-10-07T17:11:06.501Z,10.30
2022-10-07T17:13:34.224Z,5.18
2022-10-07T17:16:01.126Z,7.80
2022-10-07T17:18:28.548Z,10.57
2022-10-07T17:20:59.273Z,4.35
2022-10-07T17:23:27.302Z,8.27
2022-10-07T17:25:54.605Z,7.30
2022-10-07T17:28:24.331Z,7.55
2022-10-07T17:30:54.412Z,11.45
2022-10-07T17:33:20.851Z,10.23
2022-10-07T17:35:47.235Z,10.60
2022-10-07T17:38:13.657Z,6.90
2022-10-07T17:40:40.033Z,6.72
2022-10-07T17:43:08.983Z,9.57
2022-10-07T17:45:36.758Z,11.48
2022-10-07T17:48:04.034Z,12.10
2022-10-07T17:50:31.310Z,13.20
2022-10-07T17:52:57.747Z,11.98
2022-10-07T17:55:24.192Z,11.73
2022-10-07T17:57:50.911Z,14.23
2022-10-07T18:00:17.582Z,8.98
2022-10-07T18:02:43.999Z,12.40
2022-10-07T18:05:10.399Z,7.57
2022-10-07T18:07:36.783Z,14.95
2022-10-07T18:10:03.181Z,9.20
2022-10-07T18:12:48.333Z,11.10
2022-10-07T18:15:20.583Z,8.68
2022-10-07T18:17:51.465Z,9.70
2022-10-07T18:20:19.694Z,15.95
2022-10-07T18:22:46.135Z,7.63
2022-10-07T18:25:12.595Z,11.00
2022-10-07T18:27:39.716Z,12.55
2022-10-07T18:30:07.439Z,10.63
2022-10-07T18:32:33.850Z,12.13
2022-10-07T18:35:00.233Z,17.13
2022-10-07T18:37:26.623Z,19.98
2022-10-07T18:39:53.050Z,25.58
2022-10-07T18:42:19.439Z,12.40
2022-10-07T18:44:46.008Z,17.30
2022-10-07T18:47:12.386Z,12.82
2022-10-07T18:49:38.764Z,13.68
2022-10-07T18:52:07.251Z,14.60
2022-10-07T18:54:33.715Z,14.90
2022-10-07T18:57:00.126Z,14.52
2022-10-07T18:59:26.513Z,15.25
2022-10-07T19:01:53.015Z,19.30
2022-10-07T19:04:20.168Z,24.65
2022-10-07T19:06:47.059Z,20.35
2022-10-07T19:09:19.478Z,21.98
2022-10-07T19:11:46.323Z,18.25
2022-10-07T19:14:13.647Z,17.73
2022-10-07T19:16:42.541Z,16.92
2022-10-07T19:19:18.234Z,22.63
2022-10-07T19:21:47.390Z,24.13
2022-10-07T19:24:15.321Z,25.70
2022-10-07T19:26:46.583Z,21.00
2022-10-07T19:29:14.561Z,21.35
2022-10-07T19:31:44.257Z,22.20
2022-10-07T19:34:14.951Z,22.38
2022-10-07T19:36:46.674Z,18.98
2022-10-07T19:39:18.627Z,20.90
2022-10-07T19:41:46.213Z,22.48
2022-10-07T19:44:13.774Z,29.00
2022-10-07T19:46:40.350Z,18.70
2022-10-07T19:49:07.782Z,19.23
2022-10-07T19:51:35.280Z,23.33
2022-10-07T19:54:03.221Z,28.48
2022-10-07T19:56:32.370Z,31.92
2022-10-07T19:59:02.377Z,32.60
2022-10-07T20:01:32.157Z,29.95
2022-10-07T20:04:03.794Z,22.95
2022-10-07T20:06:30.715Z,21.42
2022-10-07T20:08:57.212Z,18.15
2022-10-07T20:11:24.159Z,23.42
2022-10-07T20:13:51.737Z,17.73
2022-10-07T20:16:21.122Z,20.00
2022-10-07T20:18:50.131Z,16.52
2022-10-07T20:21:20.525Z,22.85
2022-10-07T20:23:48.298Z,18.85
2022-10-07T20:26:20.183Z,16.75
2022-10-07T20:28:49.300Z,20.45
2022-10-07T20:31:17.675Z,19.10
2022-10-07T20:33:46.356Z,22.42
2022-10-07T20:36:15.399Z,18.25
2022-10-07T20:39:01.632Z,19.30
2022-10-07T20:41:47.696Z,20.27
2022-10-07T20:44:16.176Z,22.05
2022-10-07T20:46:42.911Z,20.90
2022-10-07T20:49:21.835Z,20.00
2022-10-07T20:51:52.858Z,21.17
2022-10-07T20:56:46.869Z,22.60
2022-10-07T20:59:13.294Z,24.80
2022-10-07T21:01:40.575Z,27.40
2022-10-07T21:04:07.659Z,25.27
2022-10-07T21:06:34.485Z,20.85
2022-10-07T21:09:01.273Z,19.65
2022-10-07T21:11:27.700Z,18.85
2022-10-07T21:13:57.252Z,21.80
2022-10-07T21:16:24.661Z,20.10
2022-10-07T21:18:51.129Z,22.85
2022-10-07T21:21:17.851Z,24.27
2022-10-07T21:23:45.142Z,23.17
2022-10-07T21:26:11.858Z,21.95
2022-10-07T21:28:39.377Z,17.90
2022-10-07T21:31:08.509Z,22.33
2022-10-07T21:33:37.429Z,20.95
2022-10-07T21:36:06.993Z,17.50
2022-10-07T21:38:34.431Z,20.45
2022-10-07T21:41:11.915Z,17.45
2022-10-07T21:43:39.574Z,15.32
2022-10-07T21:46:06.153Z,16.52
2022-10-07T21:48:32.580Z,18.88
2022-10-07T21:51:00.171Z,15.43
2022-10-07T21:53:27.314Z,12.32
2022-10-07T21:55:53.874Z,16.40
2022-10-07T21:58:21.362Z,13.77
2022-10-07T22:00:48.002Z,15.18
2022-10-07T22:03:14.626Z,14.00
2022-10-07T22:05:41.522Z,18.20
2022-10-07T22:08:31.427Z,15.00
2022-10-07T22:11:18.404Z,14.35
2022-10-07T22:13:49.626Z,14.02
2022-10-07T22:16:17.743Z,12.70
2022-10-07T22:18:48.922Z,12.27
2022-10-07T22:21:19.367Z,11.23
2022-10-07T22:23:50.757Z,13.68
2022-10-07T22:26:18.866Z,10.73
2022-10-07T22:28:46.759Z,12.57
2022-10-07T22:31:14.895Z,10.48
2022-10-07T22:33:42.554Z,11.00
2022-10-07T22:36:12.002Z,13.32
2022-10-07T22:38:40.852Z,10.07
2022-10-07T22:41:10.119Z,15.70
2022-10-07T22:43:37.715Z,13.48
2022-10-07T22:46:04.210Z,8.88
2022-10-07T22:48:31.250Z,10.35
2022-10-07T22:51:06.373Z,10.30
2022-10-07T22:53:34.924Z,12.20
2022-10-07T22:56:06.236Z,10.38
2022-10-07T22:58:34.078Z,7.10
2022-10-07T23:01:09.014Z,10.93
2022-10-07T23:03:38.421Z,12.93
2022-10-07T23:06:06.614Z,8.00
2022-10-07T23:08:34.520Z,10.45
2022-10-07T23:11:02.198Z,8.85
2022-10-07T23:13:31.435Z,13.77
2022-10-07T23:16:03.140Z,12.55
2022-10-07T23:18:30.467Z,9.63
2022-10-07T23:21:04.633Z,9.85
2022-10-07T23:23:36.283Z,9.95
2022-10-07T23:26:14.658Z,11.82
2022-10-07T23:28:41.742Z,11.52
2022-10-07T23:31:14.339Z,10.10
2022-10-07T23:33:41.237Z,8.07
2022-10-07T23:36:10.419Z,6.55
2022-10-07T23:38:39.003Z,13.27
2022-10-07T23:41:06.863Z,8.30
2022-10-07T23:43:33.809Z,9.52
2022-10-07T23:46:01.358Z,13.85
2022-10-07T23:48:28.024Z,9.52
2022-10-07T23:50:57.311Z,12.98
2022-10-07T23:53:23.728Z,12.32
2022-10-07T23:55:52.666Z,11.20
2022-10-07T23:58:21.402Z,11.32
